createdAt,value
2016-11-22T00:00:57.356Z,49
2016-11-22T00:02:03.452Z,49
2016-11-22T00:03:09.418Z,49
2016-11-22T00:04:15.411Z,49
2016-11-22T00:05:21.414Z,49
2016-11-22T00:06:27.415Z,49
2016-11-22T00:07:33.416Z,49
2016-11-22T00:08:39.414Z,49
2016-11-22T00:09:45.419Z,49
2016-11-22T00:10:51.419Z,49
2016-11-22T00:11:57.421Z,49
2016-11-22T00:13:03.425Z,49
2016-11-22T00:14:09.423Z,49
2016-11-22T00:15:15.417Z,49
2016-11-22T00:16:21.418Z,49
2016-11-22T00:17:27.420Z,49
2016-11-22T00:18:33.427Z,49
2016-11-22T00:19:39.426Z,49
2016-11-22T00:20:45.423Z,49
2016-11-22T00:21:51.434Z,49
2016-11-22T00:22:57.425Z,49
2016-11-22T00:24:03.418Z,49
2016-11-22T00:25:09.419Z,49
2016-11-22T00:26:15.425Z,49
2016-11-22T00:27:21.428Z,49
2016-11-22T00:28:27.427Z,49
2016-11-22T00:29:33.430Z,49
2016-11-22T00:30:39.426Z,49
2016-11-22T00:31:44.327Z,49
2016-11-22T00:32:50.325Z,49
2016-11-22T00:33:56.322Z,49
2016-11-22T00:35:02.326Z,49
2016-11-22T00:36:08.326Z,49
2016-11-22T00:37:14.319Z,49
2016-11-22T00:38:20.324Z,49
2016-11-22T00:39:26.323Z,49
2016-11-22T00:40:32.321Z,49
2016-11-22T00:41:38.313Z,49
2016-11-22T00:42:44.313Z,49
2016-11-22T00:43:50.317Z,49
2016-11-22T00:44:56.314Z,49
2016-11-22T00:46:02.320Z,49
2016-11-22T00:47:08.322Z,49
2016-11-22T00:48:14.328Z,49
2016-11-22T00:49:20.324Z,49
2016-11-22T00:50:26.325Z,49
2016-11-22T00:51:32.325Z,49
2016-11-22T00:52:38.332Z,49
2016-11-22T00:53:44.335Z,49
2016-11-22T00:54:50.336Z,49
2016-11-22T00:55:56.334Z,49
2016-11-22T00:57:02.339Z,49
2016-11-22T00:58:08.343Z,49
2016-11-22T00:59:14.344Z,49
2016-11-22T01:00:20.345Z,49
2016-11-22T01:01:26.345Z,49
2016-11-22T01:02:32.344Z,49
2016-11-22T01:03:38.347Z,49
2016-11-22T01:04:44.357Z,49
2016-11-22T01:05:50.353Z,49
2016-11-22T01:06:56.350Z,49
2016-11-22T01:08:02.357Z,49
2016-11-22T01:09:08.348Z,49
2016-11-22T01:10:14.347Z,49
2016-11-22T01:11:20.342Z,49
2016-11-22T01:12:26.341Z,49
2016-11-22T01:13:32.347Z,49
2016-11-22T01:14:38.349Z,49
2016-11-22T01:15:44.349Z,49
2016-11-22T01:16:50.344Z,49
2016-11-22T01:17:56.347Z,49
2016-11-22T01:19:02.346Z,49
2016-11-22T01:20:08.347Z,49
2016-11-22T01:21:14.355Z,49
2016-11-22T01:22:20.359Z,49
2016-11-22T01:23:26.356Z,49
2016-11-22T01:24:32.353Z,49
2016-11-22T01:25:38.355Z,49
2016-11-22T01:26:44.344Z,49
2016-11-22T01:27:50.341Z,49
2016-11-22T01:28:56.342Z,49
2016-11-22T01:30:02.347Z,49
2016-11-22T01:31:08.341Z,49
2016-11-22T01:32:14.343Z,49
2016-11-22T01:33:20.342Z,49
2016-11-22T01:34:26.351Z,49
2016-11-22T01:35:32.340Z,49
2016-11-22T01:36:38.338Z,49
2016-11-22T01:37:44.346Z,49
2016-11-22T01:38:50.350Z,49
2016-11-22T01:39:56.349Z,49
2016-11-22T01:41:02.351Z,49
2016-11-22T01:42:08.352Z,49
2016-11-22T01:43:14.348Z,49
2016-11-22T01:44:20.346Z,49
2016-11-22T01:45:26.347Z,49
2016-11-22T01:46:32.357Z,49
2016-11-22T01:47:38.354Z,49
2016-11-22T01:48:44.355Z,49
2016-11-22T01:49:50.370Z,49
2016-11-22T01:50:55.607Z,49
2016-11-22T01:52:01.605Z,49
2016-11-22T01:53:07.600Z,49
2016-11-22T01:54:13.606Z,49
2016-11-22T01:55:19.599Z,49
2016-11-22T01:56:25.600Z,49
2016-11-22T01:57:31.601Z,49
2016-11-22T01:58:37.605Z,49
2016-11-22T01:59:43.597Z,49
2016-11-22T02:00:49.593Z,49
2016-11-22T02:01:55.594Z,49
2016-11-22T02:03:01.594Z,49
2016-11-22T02:04:07.592Z,49
2016-11-22T02:05:13.595Z,49
2016-11-22T02:06:19.589Z,49
2016-11-22T02:07:25.580Z,49
2016-11-22T02:08:31.577Z,49
2016-11-22T02:09:37.576Z,49
2016-11-22T02:10:43.572Z,49
2016-11-22T02:11:49.573Z,49
2016-11-22T02:12:55.565Z,49
2016-11-22T02:14:01.569Z,49
2016-11-22T02:15:07.570Z,49
2016-11-22T02:16:13.574Z,49
2016-11-22T02:17:19.570Z,49
2016-11-22T02:18:25.574Z,49
2016-11-22T02:19:31.577Z,49
2016-11-22T02:20:37.572Z,49
2016-11-22T02:21:43.567Z,49
2016-11-22T02:22:49.570Z,49
2016-11-22T02:23:55.573Z,49
2016-11-22T02:25:01.573Z,49
2016-11-22T02:26:07.576Z,49
2016-11-22T02:27:13.579Z,49
2016-11-22T02:28:19.581Z,49
2016-11-22T02:29:25.583Z,49
2016-11-22T02:30:31.582Z,49
2016-11-22T02:31:37.585Z,49
2016-11-22T02:32:43.586Z,49
2016-11-22T02:33:49.584Z,49
2016-11-22T02:34:55.577Z,49
2016-11-22T02:36:01.577Z,49
2016-11-22T02:37:07.576Z,49
2016-11-22T02:38:13.572Z,49
2016-11-22T02:39:19.571Z,49
2016-11-22T02:40:25.573Z,49
2016-11-22T02:41:31.568Z,49
2016-11-22T02:42:37.566Z,49
2016-11-22T02:43:43.565Z,49
2016-11-22T02:44:49.571Z,49
2016-11-22T02:45:55.568Z,49
2016-11-22T02:47:01.570Z,49
2016-11-22T02:48:07.569Z,49
2016-11-22T02:49:13.574Z,49
2016-11-22T02:50:19.565Z,49
2016-11-22T02:51:25.561Z,49
2016-11-22T02:52:31.558Z,49
2016-11-22T02:53:37.559Z,49
2016-11-22T02:54:43.549Z,49
2016-11-22T02:55:49.541Z,49
2016-11-22T02:56:55.540Z,49
2016-11-22T02:58:01.546Z,49
2016-11-22T02:59:07.538Z,49
2016-11-22T03:00:13.540Z,49
2016-11-22T03:01:19.543Z,49
2016-11-22T03:02:25.551Z,49
2016-11-22T03:03:31.543Z,49
2016-11-22T03:04:37.544Z,49
2016-11-22T03:05:43.547Z,49
2016-11-22T03:06:49.536Z,49
2016-11-22T03:07:55.531Z,49
2016-11-22T03:09:01.534Z,49
2016-11-22T03:10:07.533Z,49
2016-11-22T03:11:13.535Z,49
2016-11-22T03:12:19.539Z,49
2016-11-22T03:13:25.531Z,49
2016-11-22T03:14:31.529Z,49
2016-11-22T03:15:37.531Z,49
2016-11-22T03:16:43.531Z,49
2016-11-22T03:17:49.532Z,49
2016-11-22T03:18:55.534Z,49
2016-11-22T03:20:01.537Z,49
2016-11-22T03:21:07.540Z,49
2016-11-22T03:22:13.537Z,49
2016-11-22T03:23:19.539Z,49
2016-11-22T03:24:25.538Z,49
2016-11-22T03:25:31.542Z,49
2016-11-22T03:26:37.541Z,49
2016-11-22T03:27:43.541Z,49
2016-11-22T03:28:49.535Z,49
2016-11-22T03:29:55.537Z,49
2016-11-22T03:31:01.548Z,49
2016-11-22T03:32:07.548Z,49
2016-11-22T03:33:13.542Z,49
2016-11-22T03:34:19.538Z,49
2016-11-22T03:35:25.530Z,49
2016-11-22T03:36:31.537Z,49
2016-11-22T03:37:37.541Z,49
2016-11-22T03:38:43.542Z,49
2016-11-22T03:39:49.532Z,49
2016-11-22T03:40:55.541Z,49
2016-11-22T03:42:01.544Z,48
2016-11-22T03:43:07.537Z,49
2016-11-22T03:44:13.525Z,48
2016-11-22T03:45:19.534Z,48
2016-11-22T03:46:25.540Z,49
2016-11-22T03:47:31.542Z,48
2016-11-22T03:48:37.539Z,48
2016-11-22T03:49:43.539Z,48
2016-11-22T03:50:49.539Z,48
2016-11-22T03:51:55.538Z,48
2016-11-22T03:53:01.535Z,48
2016-11-22T03:54:07.526Z,48
2016-11-22T03:55:13.523Z,48
2016-11-22T03:56:19.521Z,48
2016-11-22T03:57:25.525Z,48
2016-11-22T03:58:31.528Z,48
2016-11-22T03:59:37.518Z,48
2016-11-22T04:00:43.515Z,48
2016-11-22T04:01:49.520Z,48
2016-11-22T04:02:55.522Z,48
2016-11-22T04:04:01.516Z,48
2016-11-22T04:05:07.527Z,48
2016-11-22T04:06:13.534Z,48
2016-11-22T04:07:19.538Z,48
2016-11-22T04:08:25.528Z,48
2016-11-22T04:09:31.538Z,48
2016-11-22T04:10:37.532Z,48
2016-11-22T04:11:43.531Z,48
2016-11-22T04:12:49.629Z,48
2016-11-22T04:13:55.628Z,48
2016-11-22T04:15:01.625Z,48
2016-11-22T04:16:07.621Z,48
2016-11-22T04:17:13.629Z,48
2016-11-22T04:18:19.628Z,48
2016-11-22T04:19:25.626Z,48
2016-11-22T04:20:31.621Z,48
2016-11-22T04:21:37.620Z,48
2016-11-22T04:22:43.619Z,48
2016-11-22T04:23:49.620Z,48
2016-11-22T04:24:55.624Z,48
2016-11-22T04:26:01.622Z,48
2016-11-22T04:27:07.620Z,48
2016-11-22T04:28:13.614Z,48
2016-11-22T04:29:19.615Z,48
2016-11-22T04:30:25.611Z,48
2016-11-22T04:31:31.612Z,48
2016-11-22T04:32:37.613Z,48
2016-11-22T04:33:43.611Z,48
2016-11-22T04:34:49.605Z,48
2016-11-22T04:35:55.609Z,48
2016-11-22T04:37:01.606Z,48
2016-11-22T04:38:07.606Z,48
2016-11-22T04:39:13.606Z,48
2016-11-22T04:40:19.595Z,48
2016-11-22T04:41:25.590Z,48
2016-11-22T04:42:31.590Z,48
2016-11-22T04:43:37.591Z,48
2016-11-22T04:44:43.597Z,48
2016-11-22T04:45:49.594Z,48
2016-11-22T04:46:55.597Z,48
2016-11-22T04:48:01.601Z,48
2016-11-22T04:49:07.603Z,48
2016-11-22T04:50:13.592Z,48
2016-11-22T04:51:19.597Z,48
2016-11-22T04:52:25.596Z,48
2016-11-22T04:53:31.593Z,48
2016-11-22T04:54:37.596Z,48
2016-11-22T04:55:43.591Z,48
2016-11-22T04:56:49.585Z,48
2016-11-22T04:57:55.583Z,48
2016-11-22T04:59:01.584Z,48
2016-11-22T05:00:07.590Z,48
2016-11-22T05:01:13.591Z,48
2016-11-22T05:02:19.587Z,48
2016-11-22T05:03:25.579Z,48
2016-11-22T05:04:31.578Z,48
2016-11-22T05:05:37.582Z,48
2016-11-22T05:06:43.576Z,48
2016-11-22T05:07:49.573Z,48
2016-11-22T05:08:55.578Z,48
2016-11-22T05:10:01.576Z,48
2016-11-22T05:11:07.573Z,48
2016-11-22T05:12:13.563Z,48
2016-11-22T05:13:19.571Z,48
2016-11-22T05:14:25.568Z,48
2016-11-22T05:15:31.565Z,48
2016-11-22T05:16:37.565Z,48
2016-11-22T05:17:43.574Z,49
2016-11-22T05:18:49.573Z,49
2016-11-22T05:19:55.571Z,49
2016-11-22T05:21:01.578Z,48
2016-11-22T05:22:07.574Z,48
2016-11-22T05:23:13.573Z,49
2016-11-22T05:24:19.571Z,49
2016-11-22T05:25:25.574Z,49
2016-11-22T05:26:31.575Z,49
2016-11-22T05:27:37.575Z,49
2016-11-22T05:28:43.570Z,49
2016-11-22T05:29:49.575Z,49
2016-11-22T05:30:55.570Z,49
2016-11-22T05:32:01.560Z,49
2016-11-22T05:33:07.568Z,49
2016-11-22T05:34:13.572Z,49
2016-11-22T05:35:19.575Z,49
2016-11-22T05:36:25.565Z,49
2016-11-22T05:37:31.573Z,49
2016-11-22T05:38:37.571Z,49
2016-11-22T05:39:43.569Z,49
2016-11-22T05:40:49.562Z,49
2016-11-22T05:41:55.568Z,49
2016-11-22T05:43:01.567Z,49
2016-11-22T05:44:07.565Z,49
2016-11-22T05:45:13.572Z,49
2016-11-22T05:46:19.570Z,49
2016-11-22T05:47:25.567Z,49
2016-11-22T05:48:31.566Z,49
2016-11-22T05:49:37.568Z,49
2016-11-22T05:50:43.565Z,49
2016-11-22T05:51:49.560Z,49
2016-11-22T05:52:55.557Z,49
2016-11-22T05:54:01.559Z,49
2016-11-22T05:55:07.559Z,49
2016-11-22T05:56:13.555Z,49
2016-11-22T05:57:19.552Z,49
2016-11-22T05:58:25.555Z,49
2016-11-22T05:59:31.559Z,49
2016-11-22T06:00:37.555Z,49
2016-11-22T06:01:43.556Z,49
2016-11-22T06:02:49.561Z,49
2016-11-22T06:04:09.304Z,49
2016-11-22T06:05:17.043Z,49
2016-11-22T06:06:22.959Z,49
2016-11-22T06:07:28.960Z,49
2016-11-22T06:08:34.960Z,49
2016-11-22T06:09:40.965Z,49
2016-11-22T06:10:46.965Z,49
2016-11-22T06:11:52.972Z,49
2016-11-22T06:12:58.987Z,49
2016-11-22T06:14:04.985Z,49
2016-11-22T06:15:10.989Z,49
2016-11-22T06:16:17.059Z,49
2016-11-22T06:17:23.059Z,49
2016-11-22T06:18:32.581Z,49
2016-11-22T06:19:37.821Z,49
2016-11-22T06:20:43.803Z,49
2016-11-22T06:21:49.883Z,49
2016-11-22T06:22:55.885Z,49
2016-11-22T06:24:01.885Z,49
2016-11-22T06:25:07.889Z,49
2016-11-22T06:26:13.891Z,49
2016-11-22T06:27:19.908Z,49
2016-11-22T06:28:25.903Z,49
2016-11-22T06:29:31.900Z,49
2016-11-22T06:30:37.902Z,49
2016-11-22T06:31:43.913Z,49
2016-11-22T06:32:49.912Z,49
2016-11-22T06:33:55.918Z,49
2016-11-22T06:35:01.909Z,49
2016-11-22T06:36:07.915Z,49
2016-11-22T06:37:14.384Z,49
2016-11-22T06:38:20.246Z,49
2016-11-22T06:39:26.247Z,49
2016-11-22T06:40:32.249Z,49
2016-11-22T06:41:38.264Z,49
2016-11-22T06:42:44.317Z,49
2016-11-22T06:43:50.292Z,49
2016-11-22T06:44:56.297Z,49
2016-11-22T06:46:02.282Z,49
2016-11-22T06:47:08.290Z,49
2016-11-22T06:48:14.287Z,49
2016-11-22T06:49:20.292Z,49
2016-11-22T06:50:26.287Z,49
2016-11-22T06:51:32.289Z,49
2016-11-22T06:52:38.291Z,49
2016-11-22T06:53:44.327Z,49
2016-11-22T06:54:50.376Z,49
2016-11-22T06:55:56.422Z,49
2016-11-22T06:57:02.835Z,49
2016-11-22T06:58:08.847Z,49
2016-11-22T06:59:14.844Z,49
2016-11-22T07:00:20.857Z,49
2016-11-22T07:01:27.004Z,49
2016-11-22T07:02:33.007Z,49
2016-11-22T07:03:38.997Z,49
2016-11-22T07:04:45.001Z,49
2016-11-22T07:05:51.011Z,49
2016-11-22T07:06:57.006Z,49
2016-11-22T07:08:03.004Z,49
2016-11-22T07:09:09.000Z,49
2016-11-22T07:10:15.127Z,49
2016-11-22T07:11:21.120Z,49
2016-11-22T07:12:27.126Z,49
2016-11-22T07:13:33.132Z,49
2016-11-22T07:14:39.137Z,49
2016-11-22T07:15:45.134Z,49
2016-11-22T07:16:51.135Z,49
2016-11-22T07:17:57.345Z,49
2016-11-22T07:19:03.199Z,49
2016-11-22T07:20:09.292Z,49
2016-11-22T07:21:15.302Z,49
2016-11-22T07:22:30.411Z,49
2016-11-22T07:23:35.443Z,49
2016-11-22T07:24:39.884Z,49
2016-11-22T07:25:51.528Z,49
2016-11-22T07:26:59.707Z,49
2016-11-22T07:28:07.824Z,49
2016-11-22T07:29:29.943Z,49
2016-11-22T07:30:49.499Z,49
2016-11-22T07:31:53.602Z,49
2016-11-22T07:32:59.729Z,49
2016-11-22T07:34:11.694Z,49
2016-11-22T07:35:30.386Z,49
2016-11-22T07:36:36.078Z,49
2016-11-22T07:37:41.026Z,49
2016-11-22T07:38:46.459Z,49
2016-11-22T07:39:51.161Z,49
2016-11-22T07:40:56.080Z,49
2016-11-22T07:43:19.597Z,49
2016-11-22T07:44:29.965Z,49
2016-11-22T07:45:49.640Z,49
2016-11-22T07:47:00.248Z,49
2016-11-22T07:48:11.444Z,49
2016-11-22T07:49:19.526Z,49
2016-11-22T07:50:26.908Z,49
2016-11-22T07:51:33.011Z,49
2016-11-22T07:52:38.025Z,49
2016-11-22T07:53:47.822Z,49
2016-11-22T07:54:51.820Z,49
2016-11-22T07:55:58.142Z,49
2016-11-22T07:57:04.135Z,49
2016-11-22T07:58:10.129Z,49
2016-11-22T07:59:16.146Z,49
2016-11-22T08:00:22.161Z,49
2016-11-22T08:01:28.164Z,49
2016-11-22T08:02:34.166Z,49
2016-11-22T08:03:40.173Z,49
2016-11-22T08:04:46.297Z,49
2016-11-22T08:05:52.302Z,49
2016-11-22T08:06:58.306Z,49
2016-11-22T08:08:04.308Z,49
2016-11-22T08:09:10.307Z,49
2016-11-22T08:10:16.359Z,49
2016-11-22T08:11:22.352Z,49
2016-11-22T08:12:28.367Z,49
2016-11-22T08:13:34.367Z,49
2016-11-22T08:14:40.358Z,49
2016-11-22T08:15:46.390Z,49
2016-11-22T08:16:52.396Z,49
2016-11-22T08:17:58.397Z,49
2016-11-22T08:19:04.391Z,49
2016-11-22T08:20:10.448Z,48
2016-11-22T08:21:16.456Z,49
2016-11-22T08:22:22.458Z,48
2016-11-22T08:23:28.456Z,48
2016-11-22T08:24:34.463Z,49
2016-11-22T08:25:40.463Z,49
2016-11-22T08:26:46.461Z,49
2016-11-22T08:27:52.452Z,49
2016-11-22T08:28:58.459Z,49
2016-11-22T08:30:04.460Z,49
2016-11-22T08:31:10.471Z,49
2016-11-22T08:32:15.735Z,49
2016-11-22T08:33:21.058Z,49
2016-11-22T08:34:27.101Z,49
2016-11-22T08:35:33.112Z,49
2016-11-22T08:36:39.114Z,49
2016-11-22T08:37:45.121Z,49
2016-11-22T08:38:51.112Z,49
2016-11-22T08:39:57.116Z,49
2016-11-22T08:41:03.129Z,49
2016-11-22T08:42:09.142Z,49
2016-11-22T08:43:15.178Z,49
2016-11-22T08:44:21.179Z,49
2016-11-22T08:45:27.167Z,49
2016-11-22T08:46:33.178Z,49
2016-11-22T08:47:39.192Z,49
2016-11-22T08:48:45.209Z,49
2016-11-22T08:49:51.297Z,49
2016-11-22T08:50:57.352Z,49
2016-11-22T08:52:03.352Z,49
2016-11-22T08:53:09.353Z,49
2016-11-22T08:54:15.359Z,49
2016-11-22T08:55:21.363Z,49
2016-11-22T08:56:27.369Z,49
2016-11-22T08:57:33.378Z,49
2016-11-22T08:58:39.382Z,49
2016-11-22T08:59:45.388Z,49
2016-11-22T09:00:51.435Z,49
2016-11-22T09:01:57.634Z,49
2016-11-22T09:03:03.635Z,49
2016-11-22T09:04:09.639Z,49
2016-11-22T09:05:15.650Z,49
2016-11-22T09:06:21.648Z,49
2016-11-22T09:07:27.652Z,49
2016-11-22T09:08:33.658Z,49
2016-11-22T09:09:39.663Z,49
2016-11-22T09:10:45.663Z,49
2016-11-22T09:11:51.666Z,49
2016-11-22T09:12:57.671Z,49
2016-11-22T09:14:03.665Z,49
2016-11-22T09:15:09.668Z,49
2016-11-22T09:16:15.673Z,49
2016-11-22T09:17:21.668Z,49
2016-11-22T09:18:27.672Z,49
2016-11-22T09:19:33.686Z,49
2016-11-22T09:20:39.686Z,49
2016-11-22T09:21:45.693Z,49
2016-11-22T09:22:51.692Z,49
2016-11-22T09:23:57.690Z,49
2016-11-22T09:25:03.698Z,49
2016-11-22T09:26:09.695Z,49
2016-11-22T09:27:15.694Z,49
2016-11-22T09:28:21.700Z,49
2016-11-22T09:29:27.702Z,49
2016-11-22T09:30:33.706Z,49
2016-11-22T09:31:40.013Z,49
2016-11-22T09:32:46.017Z,49
2016-11-22T09:33:52.015Z,49
2016-11-22T09:34:58.020Z,49
2016-11-22T09:36:04.012Z,49
2016-11-22T09:37:10.009Z,49
2016-11-22T09:38:16.010Z,49
2016-11-22T09:39:22.014Z,49
2016-11-22T09:40:28.015Z,49
2016-11-22T09:41:34.016Z,48
2016-11-22T09:42:40.014Z,48
2016-11-22T09:43:46.007Z,48
2016-11-22T09:44:52.010Z,48
2016-11-22T09:45:58.011Z,48
2016-11-22T09:47:03.265Z,48
2016-11-22T09:48:09.273Z,47
2016-11-22T09:49:15.281Z,47
2016-11-22T09:50:21.290Z,47
2016-11-22T09:51:27.279Z,47
2016-11-22T09:52:33.287Z,47
2016-11-22T09:53:39.289Z,47
2016-11-22T09:54:45.292Z,47
2016-11-22T09:55:51.287Z,47
2016-11-22T09:56:57.293Z,47
2016-11-22T09:58:03.295Z,47
2016-11-22T09:59:09.292Z,47
2016-11-22T10:00:15.305Z,47
2016-11-22T10:01:21.309Z,47
2016-11-22T10:02:27.311Z,47
2016-11-22T10:03:32.572Z,47
2016-11-22T10:04:38.565Z,47
2016-11-22T10:05:44.568Z,47
2016-11-22T10:06:50.565Z,47
2016-11-22T10:07:56.575Z,47
2016-11-22T10:09:02.583Z,47
2016-11-22T10:10:08.588Z,47
2016-11-22T10:11:14.594Z,47
2016-11-22T10:12:20.598Z,46
2016-11-22T10:13:26.596Z,46
2016-11-22T10:14:32.596Z,46
2016-11-22T10:15:38.600Z,46
2016-11-22T10:16:44.593Z,46
2016-11-22T10:17:50.596Z,46
2016-11-22T10:18:56.603Z,46
2016-11-22T10:20:02.616Z,46
2016-11-22T10:21:08.658Z,46
2016-11-22T10:22:14.666Z,46
2016-11-22T10:23:20.672Z,46
2016-11-22T10:24:26.682Z,46
2016-11-22T10:25:32.667Z,46
2016-11-22T10:26:38.670Z,46
2016-11-22T10:27:44.671Z,46
2016-11-22T10:28:50.680Z,46
2016-11-22T10:29:56.683Z,46
2016-11-22T10:31:03.020Z,46
2016-11-22T10:32:08.693Z,46
2016-11-22T10:33:14.687Z,46
2016-11-22T10:34:20.697Z,46
2016-11-22T10:35:26.706Z,46
2016-11-22T10:36:32.701Z,46
2016-11-22T10:37:38.710Z,46
2016-11-22T10:38:44.722Z,46
2016-11-22T10:39:50.748Z,46
2016-11-22T10:40:56.739Z,46
2016-11-22T10:42:02.736Z,46
2016-11-22T10:43:08.736Z,46
2016-11-22T10:44:14.740Z,46
2016-11-22T10:45:20.746Z,45
2016-11-22T10:46:26.745Z,46
2016-11-22T10:47:32.752Z,45
2016-11-22T10:48:38.760Z,45
2016-11-22T10:49:44.761Z,45
2016-11-22T10:50:50.761Z,45
2016-11-22T10:51:56.769Z,45
2016-11-22T10:53:02.768Z,45
2016-11-22T10:54:08.764Z,45
2016-11-22T10:55:14.762Z,45
2016-11-22T10:56:20.767Z,45
2016-11-22T10:57:26.765Z,45
2016-11-22T10:58:32.771Z,45
2016-11-22T10:59:38.778Z,45
2016-11-22T11:00:44.785Z,45
2016-11-22T11:01:50.783Z,45
2016-11-22T11:02:56.791Z,45
2016-11-22T11:04:02.791Z,45
2016-11-22T11:05:08.793Z,44
2016-11-22T11:06:14.805Z,44
2016-11-22T11:07:20.816Z,44
2016-11-22T11:08:26.812Z,44
2016-11-22T11:09:32.813Z,44
2016-11-22T11:10:38.816Z,44
2016-11-22T11:11:44.820Z,44
2016-11-22T11:12:50.823Z,44
2016-11-22T11:13:56.824Z,44
2016-11-22T11:15:02.818Z,44
2016-11-22T11:16:08.829Z,44
2016-11-22T11:17:14.836Z,43
2016-11-22T11:18:20.844Z,43
2016-11-22T11:19:26.842Z,43
2016-11-22T11:20:32.109Z,43
2016-11-22T11:21:38.100Z,43
2016-11-22T11:22:44.156Z,43
2016-11-22T11:23:50.152Z,43
2016-11-22T11:24:56.177Z,43
2016-11-22T11:26:02.164Z,43
2016-11-22T11:27:08.170Z,43
2016-11-22T11:28:14.176Z,43
2016-11-22T11:29:20.179Z,42
2016-11-22T11:30:26.182Z,42
2016-11-22T11:31:32.189Z,42
2016-11-22T11:32:38.198Z,42
2016-11-22T11:33:44.211Z,42
2016-11-22T11:34:50.206Z,42
2016-11-22T11:35:56.208Z,42
2016-11-22T11:37:02.222Z,42
2016-11-22T11:38:08.221Z,42
2016-11-22T11:39:14.230Z,42
2016-11-22T11:40:20.225Z,42
2016-11-22T11:41:26.224Z,42
2016-11-22T11:42:32.222Z,42
2016-11-22T11:43:38.233Z,42
2016-11-22T11:44:44.227Z,42
2016-11-22T11:45:50.234Z,42
2016-11-22T11:46:56.239Z,42
2016-11-22T11:48:02.336Z,42
2016-11-22T11:49:08.330Z,42
2016-11-22T11:50:14.327Z,42
2016-11-22T11:51:20.338Z,42
2016-11-22T11:52:26.334Z,42
2016-11-22T11:53:32.406Z,42
2016-11-22T11:54:38.411Z,42
2016-11-22T11:55:44.419Z,42
2016-11-22T11:56:50.409Z,42
2016-11-22T11:57:56.420Z,42
2016-11-22T11:59:02.422Z,42
2016-11-22T12:00:08.424Z,42
2016-11-22T12:01:14.420Z,42
2016-11-22T12:02:20.478Z,42
2016-11-22T12:03:26.476Z,42
2016-11-22T12:04:32.482Z,42
2016-11-22T12:05:38.484Z,42
2016-11-22T12:06:44.595Z,42
2016-11-22T12:07:50.609Z,42
2016-11-22T12:08:56.600Z,42
2016-11-22T12:10:02.593Z,42
2016-11-22T12:11:08.628Z,42
2016-11-22T12:12:14.615Z,42
2016-11-22T12:13:20.621Z,42
2016-11-22T12:14:26.626Z,42
2016-11-22T12:15:32.628Z,42
2016-11-22T12:16:38.626Z,42
2016-11-22T12:17:44.628Z,42
2016-11-22T12:18:50.639Z,42
2016-11-22T12:19:56.876Z,42
2016-11-22T12:21:02.655Z,42
2016-11-22T12:22:08.658Z,42
2016-11-22T12:23:14.661Z,42
2016-11-22T12:24:20.694Z,42
2016-11-22T12:25:26.697Z,42
2016-11-22T12:26:32.705Z,42
2016-11-22T12:27:38.710Z,42
2016-11-22T12:28:44.716Z,42
2016-11-22T12:29:50.715Z,42
2016-11-22T12:30:56.723Z,42
2016-11-22T12:32:02.729Z,42
2016-11-22T12:33:08.718Z,42
2016-11-22T12:34:14.721Z,42
2016-11-22T12:35:20.727Z,42
2016-11-22T12:36:26.726Z,42
2016-11-22T12:37:32.723Z,42
2016-11-22T12:38:38.728Z,42
2016-11-22T12:39:44.742Z,42
2016-11-22T12:40:49.993Z,42
2016-11-22T12:41:55.991Z,42
2016-11-22T12:43:01.996Z,42
2016-11-22T12:44:07.997Z,42
2016-11-22T12:45:13.992Z,42
2016-11-22T12:46:21.149Z,42
2016-11-22T12:47:28.270Z,42
2016-11-22T12:48:34.287Z,42
2016-11-22T12:49:40.289Z,42
2016-11-22T12:50:46.303Z,42
2016-11-22T12:51:52.316Z,42
2016-11-22T12:52:58.327Z,42
2016-11-22T12:54:04.329Z,42
2016-11-22T12:55:10.524Z,42
2016-11-22T12:56:16.519Z,42
2016-11-22T12:57:22.525Z,42
2016-11-22T12:58:28.520Z,42
2016-11-22T12:59:34.525Z,42
2016-11-22T13:00:40.626Z,42
2016-11-22T13:01:46.620Z,42
2016-11-22T13:02:52.619Z,42
2016-11-22T13:03:58.618Z,42
2016-11-22T13:05:04.630Z,42
2016-11-22T13:06:10.686Z,42
2016-11-22T13:07:16.660Z,42
2016-11-22T13:08:22.671Z,42
2016-11-22T13:09:28.672Z,42
2016-11-22T13:10:34.674Z,42
2016-11-22T13:11:40.692Z,42
2016-11-22T13:12:46.669Z,42
2016-11-22T13:13:52.677Z,42
2016-11-22T13:14:58.684Z,42
2016-11-22T13:16:04.705Z,42
2016-11-22T13:17:10.688Z,42
2016-11-22T13:18:16.688Z,42
2016-11-22T13:19:22.690Z,42
2016-11-22T13:20:28.689Z,42
2016-11-22T13:21:34.683Z,42
2016-11-22T13:22:40.691Z,42
2016-11-22T13:23:46.693Z,42
2016-11-22T13:24:52.697Z,42
2016-11-22T13:25:58.713Z,42
2016-11-22T13:27:04.728Z,42
2016-11-22T13:28:10.725Z,42
2016-11-22T13:29:16.722Z,42
2016-11-22T13:30:22.723Z,42
2016-11-22T13:31:28.730Z,42
2016-11-22T13:32:34.727Z,42
2016-11-22T13:33:40.724Z,42
2016-11-22T13:34:46.730Z,42
2016-11-22T13:35:52.742Z,42
2016-11-22T13:36:58.735Z,42
2016-11-22T13:38:04.730Z,42
2016-11-22T13:39:10.731Z,42
2016-11-22T13:40:16.740Z,42
2016-11-22T13:41:22.737Z,42
2016-11-22T13:42:28.738Z,42
2016-11-22T13:43:34.744Z,42
2016-11-22T13:44:40.747Z,42
2016-11-22T13:45:46.750Z,42
2016-11-22T13:46:52.749Z,42
2016-11-22T13:47:58.758Z,42
2016-11-22T13:49:04.759Z,42
2016-11-22T13:50:10.758Z,42
2016-11-22T13:51:16.757Z,42
2016-11-22T13:52:22.763Z,42
2016-11-22T13:53:28.764Z,42
2016-11-22T13:54:34.764Z,42
2016-11-22T13:55:40.768Z,42
2016-11-22T13:56:46.768Z,42
2016-11-22T13:57:52.768Z,42
2016-11-22T13:58:58.773Z,42
2016-11-22T14:00:04.778Z,42
2016-11-22T14:01:10.781Z,42
2016-11-22T14:02:16.791Z,42
2016-11-22T14:03:22.792Z,42
2016-11-22T14:04:28.798Z,42
2016-11-22T14:05:34.802Z,42
2016-11-22T14:06:40.806Z,42
2016-11-22T14:07:46.842Z,42
2016-11-22T14:08:52.105Z,42
2016-11-22T14:09:58.117Z,42
2016-11-22T14:11:04.115Z,42
2016-11-22T14:12:10.125Z,42
2016-11-22T14:13:18.447Z,42
2016-11-22T14:14:28.362Z,42
2016-11-22T14:15:38.273Z,42
2016-11-22T14:16:42.642Z,42
2016-11-22T14:17:50.173Z,42
2016-11-22T14:18:56.288Z,42
2016-11-22T14:20:02.281Z,42
2016-11-22T14:21:09.243Z,42
2016-11-22T14:22:16.115Z,42
2016-11-22T14:23:22.833Z,42
2016-11-22T14:24:28.841Z,42
2016-11-22T14:25:34.834Z,42
2016-11-22T14:26:40.839Z,42
2016-11-22T14:27:46.842Z,42
2016-11-22T14:28:52.840Z,42
2016-11-22T14:29:58.840Z,42
2016-11-22T14:31:04.836Z,42
2016-11-22T14:32:10.856Z,42
2016-11-22T14:33:16.846Z,42
2016-11-22T14:34:22.845Z,42
2016-11-22T14:35:28.844Z,42
2016-11-22T14:36:34.846Z,42
2016-11-22T14:37:40.841Z,42
2016-11-22T14:38:46.847Z,42
2016-11-22T14:39:52.848Z,42
2016-11-22T14:40:58.848Z,42
2016-11-22T14:42:04.851Z,42
2016-11-22T14:43:10.860Z,42
2016-11-22T14:44:16.861Z,42
2016-11-22T14:45:22.867Z,42
2016-11-22T14:46:28.864Z,42
2016-11-22T14:47:34.873Z,42
2016-11-22T14:48:40.882Z,42
2016-11-22T14:49:46.892Z,42
2016-11-22T14:50:52.885Z,42
2016-11-22T14:51:58.887Z,42
2016-11-22T14:53:04.887Z,42
2016-11-22T14:54:10.887Z,42
2016-11-22T14:55:16.893Z,42
2016-11-22T14:56:22.902Z,42
2016-11-22T14:57:28.902Z,42
2016-11-22T14:58:34.900Z,42
2016-11-22T14:59:40.904Z,42
2016-11-22T15:00:46.907Z,42
2016-11-22T15:01:52.911Z,42
2016-11-22T15:02:58.913Z,42
2016-11-22T15:04:04.915Z,42
2016-11-22T15:05:10.917Z,42
2016-11-22T15:06:16.911Z,42
2016-11-22T15:07:22.912Z,42
2016-11-22T15:08:28.916Z,42
2016-11-22T15:09:34.917Z,42
2016-11-22T15:10:40.928Z,42
2016-11-22T15:11:46.923Z,42
2016-11-22T15:12:52.922Z,42
2016-11-22T15:13:58.921Z,42
2016-11-22T15:15:04.929Z,42
2016-11-22T15:16:10.933Z,42
2016-11-22T15:17:16.944Z,42
2016-11-22T15:18:22.948Z,42
2016-11-22T15:19:28.965Z,42
2016-11-22T15:20:34.955Z,42
2016-11-22T15:21:40.959Z,42
2016-11-22T15:22:46.968Z,42
2016-11-22T15:23:52.970Z,42
2016-11-22T15:24:58.968Z,43
2016-11-22T15:26:04.969Z,42
2016-11-22T15:27:10.972Z,43
2016-11-22T15:28:16.964Z,43
2016-11-22T15:29:22.975Z,43
2016-11-22T15:30:28.980Z,43
2016-11-22T15:31:34.980Z,43
2016-11-22T15:32:40.978Z,43
2016-11-22T15:33:46.976Z,43
2016-11-22T15:34:52.983Z,43
2016-11-22T15:35:58.980Z,43
2016-11-22T15:37:04.988Z,43
2016-11-22T15:38:10.990Z,43
2016-11-22T15:39:16.989Z,43
2016-11-22T15:40:22.989Z,43
2016-11-22T15:41:28.991Z,43
2016-11-22T15:42:34.996Z,44
2016-11-22T15:43:41.003Z,44
2016-11-22T15:44:47.002Z,44